Time;durP1;ratioP1;P1;durP2;ratioP2;P2;SDS_P1;SDS_P2;PMS_P1;PMS_P2;Temp;Humidity;BMP_temperature;BMP_pressure;BME280_temperature;BME280_humidity;BME280_pressure;Samples;Min_cycle;Max_cycle;Signal;HPM_P1;HPM_P2
2020/12/04 00:02:02;;;;;;;34.67;25.13;;;;;;;;;;4926553;29;20183;-77
2020/12/04 00:04:28;;;;;;;45.60;27.17;;;;;;;;;;4926499;29;20174;-78
2020/12/04 00:06:54;;;;;;;38.45;26.67;;;;;;;;;;4926639;29;20284;-79
2020/12/04 00:09:20;;;;;;;41.88;27.60;;;;;;;;;;4924689;29;20219;-79
2020/12/04 00:11:46;;;;;;;40.50;25.70;;;;;;;;;;4924364;29;20175;-78
2020/12/04 00:14:12;;;;;;;44.88;27.20;;;;;;;;;;4924908;29;20223;-80
2020/12/04 00:16:38;;;;;;;38.05;26.23;;;;;;;;;;4909063;29;20695;-78
2020/12/04 00:19:05;;;;;;;44.65;27.45;;;;;;;;;;4925769;29;20167;-78
2020/12/04 00:21:31;;;;;;;40.78;25.23;;;;;;;;;;4909725;29;20501;-78
2020/12/04 00:23:57;;;;;;;38.53;27.42;;;;;;;;;;4926363;29;20766;-78
2020/12/04 00:26:23;;;;;;;43.92;26.48;;;;;;;;;;4926243;29;20199;-78
2020/12/04 00:28:49;;;;;;;35.20;26.45;;;;;;;;;;4909410;29;20702;-79
2020/12/04 00:31:16;;;;;;;37.53;22.75;;;;;;;;;;4927035;29;20206;-79
2020/12/04 00:33:42;;;;;;;44.67;24.88;;;;;;;;;;4911433;29;20318;-79
2020/12/04 00:36:09;;;;;;;38.50;26.92;;;;;;;;;;4929364;29;20194;-79
2020/12/04 00:38:35;;;;;;;44.17;28.48;;;;;;;;;;4910681;29;20226;-79
2020/12/04 00:41:02;;;;;;;39.08;24.98;;;;;;;;;;4924449;29;20179;-78
2020/12/04 00:43:28;;;;;;;39.30;27.27;;;;;;;;;;4908702;29;20175;-78
2020/12/04 00:45:54;;;;;;;42.00;25.90;;;;;;;;;;4924430;29;20214;-80
2020/12/04 00:48:20;;;;;;;36.17;24.73;;;;;;;;;;4925629;29;20179;-79
2020/12/04 00:50:46;;;;;;;42.50;27.73;;;;;;;;;;4923718;29;20225;-79
2020/12/04 00:53:12;;;;;;;31.02;23.20;;;;;;;;;;4895191;29;20202;-80
2020/12/04 00:55:42;;;;;;;34.65;25.10;;;;;;;;;;4921385;29;20672;-78
2020/12/04 00:58:08;;;;;;;34.78;22.50;;;;;;;;;;4908087;29;20257;-79
2020/12/04 01:00:36;;;;;;;38.75;26.17;;;;;;;;;;4893359;29;20171;-78
2020/12/04 01:03:02;;;;;;;29.65;21.02;;;;;;;;;;4908327;29;20600;-79
2020/12/04 01:05:28;;;;;;;29.40;23.17;;;;;;;;;;4927104;29;20187;-79
2020/12/04 01:07:54;;;;;;;37.47;24.13;;;;;;;;;;4908151;29;20205;-80
2020/12/04 01:10:21;;;;;;;33.08;22.92;;;;;;;;;;4926153;29;20164;-78
2020/12/04 01:12:47;;;;;;;34.22;22.80;;;;;;;;;;4923357;29;20219;-80
2020/12/04 01:15:13;;;;;;;33.55;22.95;;;;;;;;;;4893292;29;20663;-78
2020/12/04 01:17:39;;;;;;;34.83;21.27;;;;;;;;;;4907432;29;20227;-80
2020/12/04 01:20:05;;;;;;;35.88;25.75;;;;;;;;;;4925926;29;20172;-78
2020/12/04 01:22:31;;;;;;;34.05;22.75;;;;;;;;;;4924442;29;20198;-79
2020/12/04 01:24:58;;;;;;;28.42;22.45;;;;;;;;;;4891322;29;20172;-79
2020/12/04 01:27:24;;;;;;;33.40;22.00;;;;;;;;;;4927543;29;20203;-79
2020/12/04 01:29:51;;;;;;;39.35;24.40;;;;;;;;;;4929690;29;20214;-79
2020/12/04 01:32:17;;;;;;;37.63;21.83;;;;;;;;;;4930431;29;20168;-79
2020/12/04 01:34:43;;;;;;;31.30;23.98;;;;;;;;;;4930187;29;20177;-79
2020/12/04 01:37:09;;;;;;;29.90;23.17;;;;;;;;;;4929013;29;20187;-78
2020/12/04 01:39:35;;;;;;;29.80;22.85;;;;;;;;;;4929736;29;20176;-78
2020/12/04 01:42:02;;;;;;;37.50;24.13;;;;;;;;;;4930795;29;20535;-79
2020/12/04 01:44:28;;;;;;;32.72;23.45;;;;;;;;;;4927278;29;20179;-78
2020/12/04 01:46:55;;;;;;;35.88;22.80;;;;;;;;;;4913578;29;20266;-79
2020/12/04 01:49:21;;;;;;;35.25;23.05;;;;;;;;;;4929204;29;20664;-77
2020/12/04 01:51:50;;;;;;;38.15;24.17;;;;;;;;;;4929634;29;20159;-78
2020/12/04 01:54:17;;;;;;;33.03;23.33;;;;;;;;;;4927973;29;20264;-79
2020/12/04 01:56:44;;;;;;;38.22;23.10;;;;;;;;;;4927160;29;20679;-80
2020/12/04 01:59:10;;;;;;;27.13;23.02;;;;;;;;;;4928803;29;20285;-78
2020/12/04 02:01:38;;;;;;;37.80;25.75;;;;;;;;;;4929267;29;20270;-79
2020/12/04 02:04:07;;;;;;;39.38;25.27;;;;;;;;;;4898834;29;20628;-79
2020/12/04 02:06:37;;;;;;;35.03;24.92;;;;;;;;;;4928034;29;20203;-78
2020/12/04 02:09:12;;;;;;;30.15;22.08;;;;;;;;;;4930984;29;20152;-80
2020/12/04 02:11:41;;;;;;;30.27;23.75;;;;;;;;;;4928639;29;20175;-79
2020/12/04 02:14:07;;;;;;;33.20;24.88;;;;;;;;;;4912680;29;20246;-79
2020/12/04 02:16:38;;;;;;;45.65;27.52;;;;;;;;;;4927589;29;20210;-79
2020/12/04 02:19:08;;;;;;;43.90;27.92;;;;;;;;;;4911307;29;20155;-78
2020/12/04 02:21:34;;;;;;;41.13;27.45;;;;;;;;;;4929168;29;20155;-80
2020/12/04 02:24:01;;;;;;;35.40;24.52;;;;;;;;;;4928823;29;20168;-79
2020/12/04 02:26:28;;;;;;;38.33;26.88;;;;;;;;;;4913055;29;20279;-79
2020/12/04 02:28:54;;;;;;;36.15;25.35;;;;;;;;;;4912609;29;20219;-79
2020/12/04 02:31:21;;;;;;;35.13;25.73;;;;;;;;;;4928930;29;20180;-79
2020/12/04 02:33:48;;;;;;;43.05;27.20;;;;;;;;;;4924834;29;20549;-79
2020/12/04 02:36:14;;;;;;;40.65;26.33;;;;;;;;;;4927419;29;20198;-79
2020/12/04 02:38:41;;;;;;;35.45;26.77;;;;;;;;;;4929974;29;20601;-79
2020/12/04 02:41:07;;;;;;;38.03;25.83;;;;;;;;;;4930545;29;20164;-79
2020/12/04 02:43:34;;;;;;;32.90;23.40;;;;;;;;;;4929036;29;20361;-79
2020/12/04 02:46:00;;;;;;;29.27;24.90;;;;;;;;;;4925125;29;20198;-78
2020/12/04 02:48:27;;;;;;;39.33;28.05;;;;;;;;;;4928320;29;20172;-79
2020/12/04 02:50:53;;;;;;;39.58;30.90;;;;;;;;;;4928991;29;20269;-79
2020/12/04 02:53:19;;;;;;;40.28;26.90;;;;;;;;;;4928764;29;20175;-78
2020/12/04 02:55:45;;;;;;;38.90;28.90;;;;;;;;;;4927257;29;20223;-78
2020/12/04 02:58:12;;;;;;;48.47;27.65;;;;;;;;;;4926461;29;20181;-79
2020/12/04 03:00:38;;;;;;;42.13;29.67;;;;;;;;;;4928406;29;20176;-79
2020/12/04 03:03:04;;;;;;;39.15;26.83;;;;;;;;;;4929853;29;20175;-79
2020/12/04 03:05:30;;;;;;;38.63;27.33;;;;;;;;;;4929454;29;20195;-79
2020/12/04 03:07:56;;;;;;;36.33;29.80;;;;;;;;;;4926590;29;20199;-79
2020/12/04 03:10:22;;;;;;;37.72;28.52;;;;;;;;;;4926077;29;20222;-78
2020/12/04 03:12:48;;;;;;;49.70;27.73;;;;;;;;;;4927358;29;20175;-78
2020/12/04 03:15:15;;;;;;;46.22;27.30;;;;;;;;;;4925687;29;20233;-79
2020/12/04 03:17:41;;;;;;;40.35;27.95;;;;;;;;;;4928354;29;20303;-79
2020/12/04 03:20:07;;;;;;;35.55;26.73;;;;;;;;;;4928983;29;20178;-80
2020/12/04 03:22:33;;;;;;;36.22;25.25;;;;;;;;;;4927503;29;20175;-78
2020/12/04 03:24:59;;;;;;;36.63;28.88;;;;;;;;;;4911351;29;20175;-79
2020/12/04 03:27:25;;;;;;;39.17;29.33;;;;;;;;;;4926245;29;20191;-78
2020/12/04 03:29:51;;;;;;;42.00;29.73;;;;;;;;;;4924606;29;20239;-78
2020/12/04 03:32:17;;;;;;;41.50;28.88;;;;;;;;;;4928025;29;20667;-78
2020/12/04 03:34:44;;;;;;;43.58;30.30;;;;;;;;;;4927361;29;20254;-80
2020/12/04 03:37:10;;;;;;;38.35;30.08;;;;;;;;;;4911434;29;20199;-78
2020/12/04 03:39:36;;;;;;;38.40;28.20;;;;;;;;;;4908959;29;20190;-79
2020/12/04 03:42:03;;;;;;;39.30;28.50;;;;;;;;;;4925763;29;20171;-80
2020/12/04 03:44:29;;;;;;;41.88;27.77;;;;;;;;;;4910106;29;20183;-79
2020/12/04 03:46:55;;;;;;;47.75;30.35;;;;;;;;;;4895254;29;20207;-79
2020/12/04 03:49:21;;;;;;;37.47;25.75;;;;;;;;;;4928454;29;20206;-79
2020/12/04 03:51:48;;;;;;;36.63;24.70;;;;;;;;;;4928587;29;20288;-79
2020/12/04 03:54:14;;;;;;;36.00;26.92;;;;;;;;;;4927454;29;20263;-79
2020/12/04 03:56:40;;;;;;;39.53;27.17;;;;;;;;;;4924820;29;20297;-78
2020/12/04 03:59:07;;;;;;;40.70;26.33;;;;;;;;;;4924396;29;20186;-78
2020/12/04 04:01:33;;;;;;;37.15;26.48;;;;;;;;;;4909854;29;20187;-79
2020/12/04 04:04:00;;;;;;;35.60;26.73;;;;;;;;;;4909600;29;20168;-79
2020/12/04 04:06:26;;;;;;;48.72;30.58;;;;;;;;;;4925925;29;20546;-79
2020/12/04 04:08:52;;;;;;;36.40;25.85;;;;;;;;;;4926221;29;20238;-79
2020/12/04 04:11:18;;;;;;;40.50;26.52;;;;;;;;;;4895188;29;20188;-80
2020/12/04 04:13:44;;;;;;;36.25;26.63;;;;;;;;;;4927098;29;20193;-79
2020/12/04 04:16:10;;;;;;;36.20;29.40;;;;;;;;;;4925526;29;20192;-80
2020/12/04 04:18:37;;;;;;;40.72;25.75;;;;;;;;;;4893545;29;20662;-79
2020/12/04 04:21:10;;;;;;;35.45;25.83;;;;;;;;;;4923395;29;20671;-78
2020/12/04 04:23:36;;;;;;;37.20;26.60;;;;;;;;;;4908942;29;20458;-79
2020/12/04 04:26:02;;;;;;;33.10;26.35;;;;;;;;;;4909629;29;20201;-79
2020/12/04 04:28:28;;;;;;;34.88;26.75;;;;;;;;;;4927144;29;20785;-79
2020/12/04 04:30:54;;;;;;;35.78;26.98;;;;;;;;;;4910762;29;20247;-79
2020/12/04 04:33:21;;;;;;;43.22;26.92;;;;;;;;;;4909914;29;20167;-79
2020/12/04 04:35:47;;;;;;;42.38;28.05;;;;;;;;;;4910157;29;20192;-81
2020/12/04 04:38:13;;;;;;;30.95;24.77;;;;;;;;;;4924546;29;20176;-77
2020/12/04 04:40:39;;;;;;;54.17;39.17;;;;;;;;;;4891748;29;20179;-78
2020/12/04 04:43:09;;;;;;;42.30;28.08;;;;;;;;;;4894432;29;20192;-79
2020/12/04 04:45:36;;;;;;;41.13;26.27;;;;;;;;;;4926779;29;20727;-80
2020/12/04 04:48:08;;;;;;;36.55;24.52;;;;;;;;;;4893633;29;20226;-79
2020/12/04 04:50:35;;;;;;;42.75;31.33;;;;;;;;;;4926221;29;20535;-78
2020/12/04 04:53:02;;;;;;;35.72;29.05;;;;;;;;;;4924926;29;20172;-78
2020/12/04 04:55:28;;;;;;;48.60;30.20;;;;;;;;;;4927321;29;20293;-79
2020/12/04 04:58:05;;;;;;;39.40;27.60;;;;;;;;;;4909463;29;20182;-78
2020/12/04 05:00:31;;;;;;;35.05;26.30;;;;;;;;;;4907044;29;20214;-78
2020/12/04 05:02:58;;;;;;;36.25;26.33;;;;;;;;;;4925644;29;20194;-78
2020/12/04 05:05:42;;;;;;;43.90;28.17;;;;;;;;;;4908837;29;20219;-80
2020/12/04 05:08:17;;;;;;;38.38;27.27;;;;;;;;;;4894479;29;20207;-80
2020/12/04 05:10:44;;;;;;;38.72;26.60;;;;;;;;;;4925776;29;20176;-80
2020/12/04 05:13:11;;;;;;;35.55;25.95;;;;;;;;;;4925967;29;20164;-79
2020/12/04 05:15:37;;;;;;;46.05;28.90;;;;;;;;;;4925263;29;20190;-79
2020/12/04 05:18:09;;;;;;;39.97;27.55;;;;;;;;;;4926336;29;20179;-79
2020/12/04 05:20:35;;;;;;;43.42;29.58;;;;;;;;;;4927028;29;20171;-80
2020/12/04 05:23:02;;;;;;;39.70;29.30;;;;;;;;;;4910023;29;20635;-79
2020/12/04 05:25:38;;;;;;;33.60;27.10;;;;;;;;;;4926709;29;20199;-77
2020/12/04 05:28:12;;;;;;;39.53;28.75;;;;;;;;;;4894251;29;20199;-80
2020/12/04 05:30:38;;;;;;;47.78;30.05;;;;;;;;;;4892971;29;20160;-79
2020/12/04 05:33:06;;;;;;;43.05;30.13;;;;;;;;;;4909290;29;20167;-80
2020/12/04 05:35:32;;;;;;;40.75;29.55;;;;;;;;;;4925647;29;20278;-79
2020/12/04 05:38:07;;;;;;;41.30;27.95;;;;;;;;;;4910631;29;20235;-80
2020/12/04 05:40:35;;;;;;;35.17;25.55;;;;;;;;;;4927599;29;20223;-79
2020/12/04 05:43:01;;;;;;;42.15;29.75;;;;;;;;;;4927699;29;20241;-79
2020/12/04 05:45:27;;;;;;;42.88;28.95;;;;;;;;;;4894271;29;20223;-78
2020/12/04 05:47:54;;;;;;;38.72;28.33;;;;;;;;;;4908820;29;20270;-78
2020/12/04 05:50:20;;;;;;;33.00;26.27;;;;;;;;;;4923612;29;20179;-79
2020/12/04 05:52:48;;;;;;;37.45;27.50;;;;;;;;;;4927893;29;20172;-80
2020/12/04 05:55:15;;;;;;;41.50;26.17;;;;;;;;;;4925852;29;20190;-78
2020/12/04 05:57:44;;;;;;;35.88;27.77;;;;;;;;;;4931681;23;20218;-82
2020/12/04 06:00:11;;;;;;;35.20;27.77;;;;;;;;;;4943506;29;20657;-82
2020/12/04 06:02:38;;;;;;;40.47;29.13;;;;;;;;;;4943078;29;20567;-78
2020/12/04 06:05:04;;;;;;;34.67;26.23;;;;;;;;;;4927471;29;20174;-81
2020/12/04 06:07:30;;;;;;;37.17;27.40;;;;;;;;;;4944465;29;20213;-81
2020/12/04 06:09:57;;;;;;;36.28;27.60;;;;;;;;;;4928833;29;20255;-83
2020/12/04 06:12:24;;;;;;;40.25;27.17;;;;;;;;;;4950487;29;20170;-83
2020/12/04 06:14:50;;;;;;;40.10;29.02;;;;;;;;;;4945340;29;20205;-82
2020/12/04 06:17:17;;;;;;;31.88;23.95;;;;;;;;;;4913946;29;20194;-81
2020/12/04 06:19:44;;;;;;;37.40;27.15;;;;;;;;;;4928773;29;20167;-82
2020/12/04 06:22:14;;;;;;;34.60;30.13;;;;;;;;;;4944483;29;20266;-82
2020/12/04 06:24:55;;;;;;;31.17;26.58;;;;;;;;;;4945107;29;20206;-80
2020/12/04 06:27:40;;;;;;;34.28;28.67;;;;;;;;;;4947085;29;20245;-82
2020/12/04 06:30:07;;;;;;;36.95;25.98;;;;;;;;;;4945922;29;20177;-82
2020/12/04 06:32:36;;;;;;;39.58;27.27;;;;;;;;;;4948310;29;20170;-81
2020/12/04 06:35:03;;;;;;;39.22;28.30;;;;;;;;;;4929825;29;20175;-82
2020/12/04 06:37:36;;;;;;;36.92;29.55;;;;;;;;;;4931165;29;20201;-82
2020/12/04 06:40:21;;;;;;;34.05;24.90;;;;;;;;;;4915376;29;20246;-82
2020/12/04 06:42:47;;;;;;;36.40;26.30;;;;;;;;;;4947976;29;20185;-80
2020/12/04 06:45:13;;;;;;;40.15;29.23;;;;;;;;;;4930646;29;20193;-84
2020/12/04 06:47:39;;;;;;;38.08;26.60;;;;;;;;;;4945845;29;20198;-82
2020/12/04 06:50:06;;;;;;;82.78;57.08;;;;;;;;;;4947518;29;20227;-81
2020/12/04 06:52:32;;;;;;;94.53;68.93;;;;;;;;;;4949448;29;20171;-84
2020/12/04 06:54:58;;;;;;;32.78;25.27;;;;;;;;;;4946179;29;20179;-82
2020/12/04 06:57:24;;;;;;;34.63;26.23;;;;;;;;;;4945249;29;20214;-81
2020/12/04 06:59:51;;;;;;;26.05;21.60;;;;;;;;;;4945984;29;20171;-82
2020/12/04 07:02:18;;;;;;;32.63;24.65;;;;;;;;;;4950406;29;20175;-83
2020/12/04 07:04:48;;;;;;;29.13;24.73;;;;;;;;;;4947740;29;20225;-82
2020/12/04 07:07:15;;;;;;;29.85;25.77;;;;;;;;;;4929708;29;20210;-84
2020/12/04 07:09:42;;;;;;;35.67;25.60;;;;;;;;;;4929164;29;20182;-83
2020/12/04 07:12:09;;;;;;;29.73;24.85;;;;;;;;;;4944718;29;20232;-83
2020/12/04 07:14:35;;;;;;;40.35;28.42;;;;;;;;;;4930777;29;20165;-81
2020/12/04 07:17:01;;;;;;;35.75;25.30;;;;;;;;;;4945026;29;20201;-83
2020/12/04 07:19:28;;;;;;;31.20;24.15;;;;;;;;;;4945046;29;20190;-84
2020/12/04 07:21:54;;;;;;;31.25;22.52;;;;;;;;;;4946403;29;20232;-84
2020/12/04 07:24:20;;;;;;;32.92;25.48;;;;;;;;;;4946147;29;20175;-83
2020/12/04 07:26:50;;;;;;;27.70;22.20;;;;;;;;;;4946083;29;20262;-81
2020/12/04 07:29:16;;;;;;;29.15;26.05;;;;;;;;;;4928721;29;20198;-82
2020/12/04 07:31:47;;;;;;;30.15;24.15;;;;;;;;;;4944929;29;20167;-82
2020/12/04 07:34:18;;;;;;;31.27;25.40;;;;;;;;;;4945301;29;20235;-84
2020/12/04 07:36:48;;;;;;;32.30;22.33;;;;;;;;;;4946112;29;20190;-83
2020/12/04 07:39:21;;;;;;;153.65;124.20;;;;;;;;;;4945960;29;20186;-84
2020/12/04 07:41:48;;;;;;;33.65;22.35;;;;;;;;;;4946581;29;20242;-81
2020/12/04 07:44:26;;;;;;;28.00;22.73;;;;;;;;;;4931072;29;20178;-83
2020/12/04 07:46:58;;;;;;;30.65;23.27;;;;;;;;;;4947818;29;20206;-81
2020/12/04 07:49:26;;;;;;;28.77;25.38;;;;;;;;;;4948988;29;20163;-83
2020/12/04 07:51:52;;;;;;;27.63;24.77;;;;;;;;;;4940939;29;20182;-81
2020/12/04 07:54:20;;;;;;;26.60;23.55;;;;;;;;;;4955333;29;20182;-83
2020/12/04 07:56:59;;;;;;;34.42;27.10;;;;;;;;;;4946391;29;20281;-84
2020/12/04 07:59:27;;;;;;;31.85;24.55;;;;;;;;;;4946691;29;20234;-83
2020/12/04 08:01:56;;;;;;;25.00;22.15;;;;;;;;;;4945001;29;20175;-83
2020/12/04 08:04:23;;;;;;;31.83;22.02;;;;;;;;;;4945023;29;20653;-82
2020/12/04 08:06:49;;;;;;;34.13;24.83;;;;;;;;;;4945201;29;20205;-83
2020/12/04 08:09:16;;;;;;;32.78;24.40;;;;;;;;;;4927826;29;20210;-82
2020/12/04 08:11:55;;;;;;;28.48;25.42;;;;;;;;;;4928600;29;20171;-85
2020/12/04 08:14:29;;;;;;;35.30;23.48;;;;;;;;;;4945690;29;20206;-81
2020/12/04 08:16:59;;;;;;;29.77;22.80;;;;;;;;;;4945396;29;20221;-82
2020/12/04 08:19:26;;;;;;;26.13;21.67;;;;;;;;;;4947125;29;20179;-83
2020/12/04 08:21:55;;;;;;;34.22;26.45;;;;;;;;;;4945479;29;20170;-81
2020/12/04 08:24:23;;;;;;;30.33;24.38;;;;;;;;;;4929389;29;20171;-84
2020/12/04 08:26:58;;;;;;;25.45;21.65;;;;;;;;;;4946678;29;20226;-82
2020/12/04 08:29:25;;;;;;;26.48;22.13;;;;;;;;;;4927619;29;20165;-82
2020/12/04 08:32:05;;;;;;;25.98;21.38;;;;;;;;;;4944928;29;20269;-82
2020/12/04 08:34:31;;;;;;;28.60;22.95;;;;;;;;;;4945612;29;20174;-82
2020/12/04 08:37:02;;;;;;;25.92;21.10;;;;;;;;;;4944906;29;20199;-82
2020/12/04 08:39:38;;;;;;;73.00;51.78;;;;;;;;;;4946134;29;20194;-83
2020/12/04 08:42:18;;;;;;;30.05;22.50;;;;;;;;;;4944159;29;20181;-83
2020/12/04 08:45:14;;;;;;;24.88;21.60;;;;;;;;;;4945660;29;20170;-82
2020/12/04 08:47:44;;;;;;;32.78;25.20;;;;;;;;;;4931333;29;20229;-82
2020/12/04 08:50:12;;;;;;;25.92;21.35;;;;;;;;;;4947027;29;20186;-83
2020/12/04 08:52:44;;;;;;;28.58;24.08;;;;;;;;;;4929931;29;20166;-84
2020/12/04 08:55:14;;;;;;;30.65;23.75;;;;;;;;;;4929866;29;20175;-80
2020/12/04 08:57:41;;;;;;;27.42;21.75;;;;;;;;;;4927763;29;20213;-84
2020/12/04 09:00:08;;;;;;;23.88;21.33;;;;;;;;;;4948515;29;20170;-83
2020/12/04 09:02:35;;;;;;;26.30;21.58;;;;;;;;;;4954154;29;20186;-81
2020/12/04 09:05:02;;;;;;;25.23;20.38;;;;;;;;;;4952595;29;20178;-83
2020/12/04 09:07:29;;;;;;;27.73;22.70;;;;;;;;;;4933585;29;20293;-83
2020/12/04 09:09:55;;;;;;;31.45;24.75;;;;;;;;;;4942284;29;20255;-83
2020/12/04 09:12:24;;;;;;;21.33;19.00;;;;;;;;;;4925920;29;20238;-81
2020/12/04 09:14:54;;;;;;;24.45;21.30;;;;;;;;;;4945643;29;20155;-83
2020/12/04 09:17:20;;;;;;;28.65;22.75;;;;;;;;;;4943778;29;20190;-83
2020/12/04 09:19:46;;;;;;;28.13;19.45;;;;;;;;;;4927042;29;20266;-83
2020/12/04 09:22:16;;;;;;;23.27;20.70;;;;;;;;;;4928357;29;20183;-83
2020/12/04 09:24:44;;;;;;;26.70;19.67;;;;;;;;;;4926259;29;20174;-84
2020/12/04 09:27:13;;;;;;;32.47;22.30;;;;;;;;;;4943618;29;20213;-83
2020/12/04 09:29:42;;;;;;;22.85;20.55;;;;;;;;;;4943459;29;20174;-81
2020/12/04 09:32:23;;;;;;;;;;;;;;;;;;;;;
2020/12/04 09:34:53;;;;;;;23.08;19.50;;;;;;;;;;4944130;29;20158;-84
2020/12/04 09:37:33;;;;;;;25.50;19.73;;;;;;;;;;4943568;29;20198;-82
2020/12/04 09:40:04;;;;;;;22.48;19.55;;;;;;;;;;4941779;29;20181;-84
2020/12/04 09:42:34;;;;;;;24.58;20.08;;;;;;;;;;4924674;29;20235;-81
2020/12/04 09:45:12;;;;;;;23.77;20.08;;;;;;;;;;4926493;29;20588;-82
2020/12/04 09:47:38;;;;;;;22.58;18.90;;;;;;;;;;4936096;29;20210;-83
2020/12/04 09:50:19;;;;;;;;;;;;;;;;;;;;;
2020/12/04 09:52:46;;;;;;;37.15;27.83;;;;;;;;;;4947009;29;20170;-83
2020/12/04 09:55:16;;;;;;;23.27;20.58;;;;;;;;;;4946687;29;20166;-82
2020/12/04 09:57:43;;;;;;;25.45;20.33;;;;;;;;;;4934711;29;20276;-84
2020/12/04 10:00:12;;;;;;;23.15;20.20;;;;;;;;;;4946996;29;20174;-83
2020/12/04 10:02:39;;;;;;;24.55;20.55;;;;;;;;;;4946893;29;20165;-83
2020/12/04 10:05:06;;;;;;;26.35;22.95;;;;;;;;;;4946268;29;20180;-82
2020/12/04 10:07:33;;;;;;;26.02;19.02;;;;;;;;;;4946340;29;20254;-83
2020/12/04 10:09:59;;;;;;;25.02;19.63;;;;;;;;;;4946145;29;20170;-83
2020/12/04 10:12:25;;;;;;;25.17;21.85;;;;;;;;;;4945983;29;20178;-83
2020/12/04 10:14:52;;;;;;;24.08;20.35;;;;;;;;;;4945670;29;20224;-82
2020/12/04 10:17:19;;;;;;;22.10;19.85;;;;;;;;;;4950706;29;20195;-83
2020/12/04 10:19:45;;;;;;;24.10;19.83;;;;;;;;;;4945678;29;20198;-84
2020/12/04 10:22:21;;;;;;;28.55;21.33;;;;;;;;;;4928637;29;20198;-82
2020/12/04 10:24:48;;;;;;;23.40;18.85;;;;;;;;;;4928281;29;20203;-83
2020/12/04 10:27:14;;;;;;;23.05;19.60;;;;;;;;;;4945428;29;20206;-82
2020/12/04 10:29:41;;;;;;;25.55;20.85;;;;;;;;;;4949364;29;20147;-82
2020/12/04 10:32:07;;;;;;;28.70;21.75;;;;;;;;;;4946220;29;20673;-81
2020/12/04 10:34:34;;;;;;;24.55;21.92;;;;;;;;;;4946542;29;20170;-82
2020/12/04 10:37:00;;;;;;;23.17;20.23;;;;;;;;;;4944210;29;20217;-83
2020/12/04 10:39:26;;;;;;;28.48;21.77;;;;;;;;;;4944268;29;20170;-83
2020/12/04 10:41:53;;;;;;;30.35;23.73;;;;;;;;;;4944620;29;20170;-83
2020/12/04 10:44:19;;;;;;;28.48;22.55;;;;;;;;;;4942786;29;20179;-82
2020/12/04 10:46:45;;;;;;;21.33;19.15;;;;;;;;;;4942677;29;20198;-82
2020/12/04 10:49:11;;;;;;;23.05;19.60;;;;;;;;;;4944042;29;20166;-81
2020/12/04 10:51:38;;;;;;;28.88;22.25;;;;;;;;;;4943544;29;20203;-83
2020/12/04 10:54:05;;;;;;;24.85;20.50;;;;;;;;;;4942869;29;20179;-84
2020/12/04 10:56:32;;;;;;;25.95;19.92;;;;;;;;;;4927777;29;20273;-82
2020/12/04 10:58:58;;;;;;;30.27;20.25;;;;;;;;;;4944914;29;20186;-80
2020/12/04 11:01:34;;;;;;;27.23;22.55;;;;;;;;;;4943739;29;20186;-81
2020/12/04 11:06:45;;;;;;;41.20;32.03;;;;;;;;;;4944467;29;20238;-83
2020/12/04 11:09:11;;;;;;;24.00;21.40;;;;;;;;;;4944025;29;20183;-82
2020/12/04 11:11:37;;;;;;;22.45;20.17;;;;;;;;;;4943009;29;20189;-83
2020/12/04 11:14:04;;;;;;;26.23;22.10;;;;;;;;;;4944234;29;20162;-83
2020/12/04 11:16:30;;;;;;;26.50;21.70;;;;;;;;;;4943527;29;20190;-83
2020/12/04 11:18:56;;;;;;;23.90;21.30;;;;;;;;;;4927391;29;20205;-82
2020/12/04 11:21:29;;;;;;;29.35;22.15;;;;;;;;;;4928174;29;20186;-82
2020/12/04 11:23:57;;;;;;;22.98;18.85;;;;;;;;;;4944852;29;20166;-83
2020/12/04 11:26:23;;;;;;;25.92;19.15;;;;;;;;;;4944120;29;20282;-80
2020/12/04 11:28:53;;;;;;;31.85;21.42;;;;;;;;;;4970087;23;20232;-87
2020/12/04 11:31:19;;;;;;;23.10;19.75;;;;;;;;;;4944247;29;20642;-88
2020/12/04 11:33:57;;;;;;;26.98;20.92;;;;;;;;;;4928888;29;20159;-88
2020/12/04 11:36:37;;;;;;;;;;;;;;;;;;;;;
2020/12/04 11:39:13;;;;;;;27.20;23.80;;;;;;;;;;4937190;28;20254;-88
2020/12/04 11:42:02;;;;;;;;;;;;;;;;;;;;;
2020/12/04 11:44:44;;;;;;;35.78;27.40;;;;;;;;;;4961220;28;20162;-89
2020/12/04 11:47:37;;;;;;;;;;;;;;;;;;;;;
2020/12/04 11:50:20;;;;;;;22.80;20.35;;;;;;;;;;4944511;28;20186;-89
2020/12/04 11:53:01;;;;;;;30.33;24.90;;;;;;;;;;4960679;28;20167;-87
2020/12/04 11:55:30;;;;;;;39.30;25.40;;;;;;;;;;4944382;28;20426;-88
2020/12/04 11:58:13;;;;;;;26.13;20.65;;;;;;;;;;4943702;28;20210;-90
2020/12/04 12:00:57;;;;;;;29.30;23.00;;;;;;;;;;4941652;29;20202;-88
2020/12/04 12:03:28;;;;;;;25.00;19.40;;;;;;;;;;4958763;28;20159;-89
2020/12/04 12:05:58;;;;;;;23.73;19.42;;;;;;;;;;4943843;28;20433;-88
2020/12/04 12:08:38;;;;;;;24.58;18.80;;;;;;;;;;4943430;28;20282;-88
2020/12/04 12:11:07;;;;;;;28.70;22.92;;;;;;;;;;4943383;28;20182;-89
2020/12/04 12:13:46;;;;;;;21.92;17.50;;;;;;;;;;4959994;28;20155;-88
2020/12/04 12:16:23;;;;;;;;;;;;;;;;;;;;;
2020/12/04 12:18:50;;;;;;;22.60;19.73;;;;;;;;;;4949035;29;20198;-89
2020/12/04 12:21:24;;;;;;;22.90;20.13;;;;;;;;;;4952077;29;20210;-88
2020/12/04 12:23:57;;;;;;;34.83;23.95;;;;;;;;;;4935544;29;20478;-89
2020/12/04 12:26:26;;;;;;;21.85;18.85;;;;;;;;;;4914626;29;20214;-89
2020/12/04 12:29:02;;;;;;;;;;;;;;;;;;;;;
2020/12/04 12:31:29;;;;;;;24.23;19.77;;;;;;;;;;4931429;29;20182;-88
2020/12/04 12:34:02;;;;;;;25.75;19.63;;;;;;;;;;4947950;29;20198;-88
2020/12/04 12:36:38;;;;;;;;;;;;;;;;;;;;;
2020/12/04 12:39:05;;;;;;;24.70;19.05;;;;;;;;;;4949467;29;20201;-88
2020/12/04 12:41:31;;;;;;;26.67;21.42;;;;;;;;;;4931051;29;20669;-88
2020/12/04 12:44:01;;;;;;;28.75;20.88;;;;;;;;;;4928397;29;20171;-89
2020/12/04 12:46:40;;;;;;;;;;;;;;;;;;;;;
2020/12/04 12:49:09;;;;;;;20.70;16.80;;;;;;;;;;4925571;29;20221;-89
2020/12/04 12:51:49;;;;;;;22.50;20.08;;;;;;;;;;4926137;29;20263;-88
2020/12/04 12:54:18;;;;;;;21.52;19.27;;;;;;;;;;4911032;29;20182;-88
2020/12/04 13:01:04;;;;;;;;;;;;;;;;;;;;;
2020/12/04 13:04:30;;;;;;;;;;;;;;;;;;;;;
2020/12/04 13:07:44;;;;;;;22.83;18.60;;;;;;;;;;4945482;29;20293;-88
2020/12/04 13:10:13;;;;;;;31.13;27.40;;;;;;;;;;4869965;29;20177;-89
2020/12/04 13:12:55;;;;;;;23.95;21.35;;;;;;;;;;4857727;29;20173;-88
2020/12/04 13:15:53;;;;;;;22.58;20.13;;;;;;;;;;4862937;29;20197;-90
2020/12/04 13:21:09;;;;;;;23.40;20.75;;;;;;;;;;5106729;23;20249;-79
2020/12/04 13:23:36;;;;;;;28.42;23.63;;;;;;;;;;4926522;29;20595;-76
2020/12/04 13:26:02;;;;;;;21.30;19.10;;;;;;;;;;4934319;29;20694;-76
2020/12/04 13:28:29;;;;;;;24.10;18.73;;;;;;;;;;4904109;29;20828;-76
2020/12/04 13:30:55;;;;;;;22.58;20.27;;;;;;;;;;4938602;29;20186;-76
2020/12/04 13:33:21;;;;;;;76.63;62.70;;;;;;;;;;4921458;29;20593;-75
2020/12/04 13:35:48;;;;;;;27.23;23.92;;;;;;;;;;4920703;29;20690;-77
2020/12/04 13:38:17;;;;;;;23.63;19.75;;;;;;;;;;4921852;29;20229;-77
2020/12/04 13:40:43;;;;;;;31.48;25.38;;;;;;;;;;4938703;29;20581;-76
2020/12/04 13:43:10;;;;;;;29.88;25.58;;;;;;;;;;4921172;29;20390;-76
2020/12/04 13:45:36;;;;;;;27.30;22.30;;;;;;;;;;4939685;23;20225;-79
2020/12/04 13:48:02;;;;;;;27.33;23.33;;;;;;;;;;4930581;29;20244;-78
2020/12/04 13:50:29;;;;;;;27.60;20.60;;;;;;;;;;4943475;28;20662;-78
2020/12/04 13:52:56;;;;;;;23.88;19.13;;;;;;;;;;4937522;29;20190;-82
2020/12/04 13:55:23;;;;;;;26.63;20.58;;;;;;;;;;4962231;28;20182;-82
2020/12/04 13:57:49;;;;;;;24.83;18.90;;;;;;;;;;4944043;28;20189;-79
2020/12/04 14:00:15;;;;;;;20.30;18.02;;;;;;;;;;4945592;29;20243;-80
2020/12/04 14:02:42;;;;;;;29.15;23.95;;;;;;;;;;4943975;28;20179;-81
2020/12/04 14:05:08;;;;;;;38.30;32.60;;;;;;;;;;4916958;29;20249;-80
2020/12/04 14:07:34;;;;;;;29.30;24.05;;;;;;;;;;4942810;29;20571;-80
2020/12/04 14:10:00;;;;;;;24.05;21.05;;;;;;;;;;4942895;29;20231;-80
2020/12/04 14:12:27;;;;;;;76.07;64.57;;;;;;;;;;4925886;29;20186;-80
2020/12/04 14:14:53;;;;;;;27.40;19.77;;;;;;;;;;4943630;29;20186;-82
2020/12/04 14:17:20;;;;;;;21.08;18.80;;;;;;;;;;4944272;29;20173;-81
2020/12/04 14:19:47;;;;;;;22.52;20.05;;;;;;;;;;4943281;28;20241;-82
2020/12/04 14:22:13;;;;;;;24.00;20.33;;;;;;;;;;4927142;29;20673;-82
2020/12/04 14:24:39;;;;;;;21.20;18.88;;;;;;;;;;4928224;29;20656;-81
2020/12/04 14:27:06;;;;;;;22.58;18.83;;;;;;;;;;4940927;29;20223;-81
2020/12/04 14:29:32;;;;;;;23.83;18.50;;;;;;;;;;4926101;29;20536;-79
2020/12/04 14:31:58;;;;;;;24.77;21.10;;;;;;;;;;4942707;29;20214;-80
2020/12/04 14:34:26;;;;;;;24.48;19.98;;;;;;;;;;4947826;29;20175;-81
2020/12/04 14:37:00;;;;;;;27.27;17.88;;;;;;;;;;4947984;29;20151;-81
2020/12/04 14:39:26;;;;;;;25.42;21.83;;;;;;;;;;4948093;29;20190;-81
2020/12/04 14:41:54;;;;;;;24.90;20.98;;;;;;;;;;4946914;29;20159;-81
2020/12/04 14:44:20;;;;;;;24.92;20.52;;;;;;;;;;4932030;29;20206;-80
2020/12/04 14:46:47;;;;;;;20.83;18.60;;;;;;;;;;4948342;29;20198;-80
2020/12/04 14:49:13;;;;;;;24.88;20.95;;;;;;;;;;4946441;29;20565;-79